Time;durP1;ratioP1;P1;durP2;ratioP2;P2;SDS_P1;SDS_P2;PMS_P1;PMS_P2;Temp;Humidity;BMP_temperature;BMP_pressure;BME280_temperature;BME280_humidity;BME280_pressure;Samples;Min_cycle;Max_cycle;Signal;HPM_P1;HPM_P2
2023/07/29 00:03:30;;;;;;;3.13;2.87;;;15.00;99.90;;;;;;8206700;28;20213;-64
2023/07/29 00:07:31;;;;;;;3.00;2.70;;;14.90;99.90;;;;;;8222871;28;20223;-63
2023/07/29 00:11:33;;;;;;;3.50;2.50;;;14.90;1.00;;;;;;8203666;28;20196;-64
2023/07/29 00:15:34;;;;;;;2.87;2.67;;;14.80;99.90;;;;;;8205966;28;20201;-65
2023/07/29 00:19:36;;;;;;;3.27;2.90;;;14.80;1.00;;;;;;8205712;28;20289;-65
2023/07/29 00:23:37;;;;;;;3.30;3.10;;;14.80;1.00;;;;;;8205005;28;20192;-63
2023/07/29 00:27:41;;;;;;;2.90;2.70;;;14.80;1.00;;;;;;8220830;28;20215;-65
2023/07/29 00:31:42;;;;;;;3.57;2.60;;;14.80;99.90;;;;;;8220298;28;20356;-64
2023/07/29 00:35:42;;;;;;;3.40;3.10;;;14.80;1.00;;;;;;8208521;28;20189;-64
2023/07/29 00:39:44;;;;;;;3.87;3.33;;;14.80;1.00;;;;;;8204022;28;20192;-66
2023/07/29 00:43:45;;;;;;;3.70;3.40;;;14.80;99.90;;;;;;8204025;28;20291;-64
2023/07/29 00:47:46;;;;;;;3.73;3.23;;;14.80;1.00;;;;;;8204178;28;20219;-65
2023/07/29 00:51:47;;;;;;;3.90;3.33;;;14.80;99.90;;;;;;8204995;28;20195;-65
2023/07/29 00:55:48;;;;;;;4.27;3.50;;;14.80;99.90;;;;;;8201695;28;20272;-64
2023/07/29 00:59:49;;;;;;;3.03;2.83;;;14.80;99.90;;;;;;8199033;28;20197;-65
2023/07/29 01:03:50;;;;;;;3.13;2.70;;;14.80;99.90;;;;;;8207504;28;20212;-65
2023/07/29 01:08:21;;;;;;;3.37;3.07;;;14.80;99.90;;;;;;8472640;22;20242;-85
2023/07/29 01:12:59;;;;;;;3.33;3.00;;;14.70;99.90;;;;;;8293867;28;20183;-84
2023/07/29 01:17:08;;;;;;;3.50;3.20;;;14.60;99.90;;;;;;8317981;28;20195;-85
2023/07/29 01:21:13;;;;;;;3.43;3.13;;;14.60;99.90;;;;;;8312534;28;20237;-85
2023/07/29 01:25:17;;;;;;;3.50;3.20;;;14.60;99.90;;;;;;8284631;28;20195;-83
2023/07/29 01:29:18;;;;;;;3.20;2.90;;;14.50;99.90;;;;;;8273690;28;20327;-83
2023/07/29 01:33:46;;;;;;;3.67;3.37;;;14.50;99.90;;;;;;8292239;28;20195;-83
2023/07/29 01:37:51;;;;;;;3.97;3.57;;;14.60;99.90;;;;;;8274014;28;20322;-83
2023/07/29 01:41:52;;;;;;;4.40;4.00;;;14.60;99.90;;;;;;8295255;28;20222;-83
2023/07/29 01:45:52;;;;;;;3.70;3.37;;;14.60;99.90;;;;;;8288910;28;20191;-83
2023/07/29 01:49:53;;;;;;;3.63;3.33;;;14.60;99.90;;;;;;8281857;28;20221;-83
2023/07/29 01:53:55;;;;;;;4.03;3.63;;;14.60;99.90;;;;;;8280510;28;20187;-83
2023/07/29 01:57:56;;;;;;;3.43;3.00;;;14.60;99.90;;;;;;8287791;28;20203;-83
2023/07/29 02:01:57;;;;;;;4.07;3.67;;;14.50;99.90;;;;;;8283123;28;20338;-83
2023/07/29 02:05:57;;;;;;;5.13;3.30;;;14.40;99.90;;;;;;8295076;28;20306;-83
2023/07/29 02:09:59;;;;;;;3.83;3.53;;;14.40;99.90;;;;;;8278696;28;20303;-83
2023/07/29 02:14:00;;;;;;;6.97;3.73;;;14.40;99.90;;;;;;8280583;28;20196;-84
2023/07/29 02:18:01;;;;;;;3.40;3.10;;;14.40;99.90;;;;;;8281610;28;20192;-83
2023/07/29 02:22:03;;;;;;;3.27;2.97;;;14.40;99.90;;;;;;8274967;28;20195;-83
2023/07/29 02:26:04;;;;;;;3.57;3.27;;;14.30;99.90;;;;;;8276347;28;20199;-83
2023/07/29 02:30:06;;;;;;;3.30;3.00;;;14.30;99.90;;;;;;8273471;28;20317;-82
2023/07/29 02:34:06;;;;;;;3.50;3.07;;;14.30;99.90;;;;;;8283913;28;20192;-83
2023/07/29 02:38:07;;;;;;;3.60;3.13;;;14.20;99.90;;;;;;8269976;28;20283;-83
2023/07/29 02:42:11;;;;;;;4.50;2.70;;;14.20;99.90;;;;;;8267037;28;20218;-83
2023/07/29 02:46:19;;;;;;;4.67;3.00;;;14.20;99.90;;;;;;8288828;28;20187;-83
2023/07/29 02:50:20;;;;;;;5.00;2.97;;;14.40;99.90;;;;;;8271406;28;20215;-83
2023/07/29 02:54:21;;;;;;;2.70;2.50;;;14.40;99.90;;;;;;8273731;28;20184;-84
2023/07/29 02:58:22;;;;;;;5.10;2.60;;;14.50;99.90;;;;;;8277781;28;20217;-83
2023/07/29 03:02:22;;;;;;;2.60;2.40;;;14.60;99.90;;;;;;8278509;28;20199;-83
2023/07/29 03:06:29;;;;;;;3.10;2.40;;;14.80;99.90;;;;;;8287158;28;20551;-83
2023/07/29 03:10:30;;;;;;;3.53;2.57;;;14.90;99.90;;;;;;8271307;28;20221;-83
2023/07/29 03:14:31;;;;;;;2.03;1.90;;;15.10;99.90;;;;;;8273323;28;20442;-83
2023/07/29 03:18:32;;;;;;;2.23;2.03;;;15.30;99.90;;;;;;8275723;28;20227;-83
2023/07/29 03:22:33;;;;;;;2.50;2.10;;;15.40;99.90;;;;;;8275833;28;20192;-83
2023/07/29 03:26:34;;;;;;;2.80;2.20;;;15.50;99.90;;;;;;8269766;28;20203;-83
2023/07/29 03:30:35;;;;;;;3.53;2.10;;;15.60;99.90;;;;;;8274447;28;20526;-84
2023/07/29 03:34:36;;;;;;;2.80;2.00;;;15.70;99.90;;;;;;8280438;28;20187;-83
2023/07/29 03:38:39;;;;;;;3.20;2.70;;;15.80;99.90;;;;;;8277001;28;20226;-83
2023/07/29 03:42:40;;;;;;;2.47;2.27;;;15.90;99.90;;;;;;8292809;28;20196;-83
2023/07/29 03:46:41;;;;;;;3.97;2.20;;;16.00;99.90;;;;;;8275172;28;20203;-86
2023/07/29 03:50:42;;;;;;;2.37;2.17;;;16.10;99.90;;;;;;8277021;28;20294;-86
2023/07/29 03:54:43;;;;;;;2.40;2.20;;;16.20;99.90;;;;;;8270997;28;20242;-86
2023/07/29 03:58:45;;;;;;;2.80;2.30;;;16.30;99.90;;;;;;8277497;28;20805;-86
2023/07/29 04:02:48;;;;;;;3.30;2.17;;;16.80;99.90;;;;;;8271543;28;20247;-87
2023/07/29 04:06:49;;;;;;;5.00;2.20;;;17.80;99.90;;;;;;8275084;28;20329;-87
2023/07/29 04:10:50;;;;;;;2.00;1.33;;;18.70;99.90;;;;;;8277659;28;20218;-86
2023/07/29 04:14:51;;;;;;;2.73;1.30;;;19.30;99.90;;;;;;8274657;28;20191;-86
2023/07/29 04:18:54;;;;;;;3.10;1.47;;;20.00;99.90;;;;;;8275311;28;20191;-86
2023/07/29 04:22:55;;;;;;;2.70;1.27;;;20.80;99.90;;;;;;8287369;28;20191;-87
2023/07/29 04:26:56;;;;;;;1.80;1.30;;;21.40;34.50;;;;;;8272613;28;20198;-86
2023/07/29 04:30:57;;;;;;;2.20;1.10;;;22.00;1.00;;;;;;8270595;28;20219;-87
2023/07/29 04:34:58;;;;;;;2.40;1.20;;;22.60;1.00;;;;;;8277267;28;20187;-86
2023/07/29 04:38:58;;;;;;;1.20;1.10;;;23.10;1.00;;;;;;8266276;28;20199;-86
2023/07/29 04:43:05;;;;;;;2.23;1.20;;;23.50;1.00;;;;;;8266638;28;20552;-86
2023/07/29 04:47:10;;;;;;;1.40;0.90;;;23.40;1.00;;;;;;8279629;28;20284;-86
2023/07/29 04:51:10;;;;;;;2.70;1.30;;;23.50;1.00;;;;;;8275423;28;20196;-86
2023/07/29 04:55:11;;;;;;;2.70;1.20;;;23.80;1.00;;;;;;8273404;28;20240;-85
2023/07/29 04:59:12;;;;;;;1.10;1.00;;;23.90;1.00;;;;;;8285340;28;20215;-86
2023/07/29 05:03:13;;;;;;;1.30;1.10;;;23.90;1.00;;;;;;8268928;28;20187;-86
2023/07/29 05:07:14;;;;;;;2.13;1.27;;;23.80;1.00;;;;;;8268894;28;20220;-87
2023/07/29 05:11:15;;;;;;;1.27;0.97;;;23.70;1.00;;;;;;8286077;28;20179;-86
2023/07/29 05:15:16;;;;;;;2.13;1.00;;;23.20;1.00;;;;;;8269172;28;20258;-84
2023/07/29 05:19:17;;;;;;;1.83;1.10;;;22.90;1.00;;;;;;8272789;28;20195;-84
2023/07/29 05:23:18;;;;;;;1.30;1.13;;;22.50;1.00;;;;;;8269024;28;20192;-83
2023/07/29 05:27:18;;;;;;;4.00;1.50;;;22.30;1.00;;;;;;8274899;28;20303;-84
2023/07/29 05:31:19;;;;;;;1.40;1.20;;;22.10;1.00;;;;;;8270957;28;20191;-83
2023/07/29 05:35:22;;;;;;;1.53;1.07;;;22.00;1.00;;;;;;8270309;28;20235;-84
2023/07/29 05:39:26;;;;;;;1.20;1.00;;;22.00;1.00;;;;;;8273360;28;20195;-83
2023/07/29 05:43:27;;;;;;;3.03;1.00;;;22.00;1.00;;;;;;8268014;28;20306;-84
2023/07/29 05:47:28;;;;;;;1.70;0.90;;;22.00;1.00;;;;;;8265404;28;20208;-84
2023/07/29 05:51:32;;;;;;;4.30;1.30;;;22.00;1.00;;;;;;8269699;28;20200;-84
2023/07/29 05:55:33;;;;;;;1.07;0.97;;;22.10;1.00;;;;;;8271551;28;20306;-84
2023/07/29 05:59:33;;;;;;;4.80;1.30;;;22.10;1.00;;;;;;8266769;28;20191;-84
2023/07/29 06:03:34;;;;;;;1.20;1.10;;;22.20;1.00;;;;;;8280264;28;20272;-84
2023/07/29 06:07:35;;;;;;;0.97;0.90;;;22.20;1.00;;;;;;8280632;28;20225;-84
2023/07/29 06:11:36;;;;;;;3.03;1.27;;;22.20;1.00;;;;;;8269296;28;20196;-84
2023/07/29 06:15:37;;;;;;;1.83;0.90;;;22.30;1.00;;;;;;8265596;28;20188;-83
2023/07/29 06:19:38;;;;;;;1.80;1.10;;;22.50;1.00;;;;;;8270088;28;20199;-85
2023/07/29 06:23:45;;;;;;;1.13;1.03;;;22.60;1.00;;;;;;8273237;28;20190;-84
2023/07/29 06:27:46;;;;;;;1.20;1.10;;;22.70;1.00;;;;;;8281603;28;20219;-84
2023/07/29 06:31:47;;;;;;;1.70;1.00;;;22.90;1.00;;;;;;8280813;28;20195;-85
2023/07/29 06:35:47;;;;;;;0.90;0.80;;;23.00;1.00;;;;;;8267014;28;20258;-86
2023/07/29 06:39:48;;;;;;;1.37;0.97;;;23.00;1.00;;;;;;8271359;28;20632;-84
2023/07/29 06:43:52;;;;;;;1.87;1.00;;;23.00;1.00;;;;;;8264628;28;20270;-85
2023/07/29 06:47:53;;;;;;;1.50;0.90;;;23.00;1.00;;;;;;8279941;28;20211;-84
2023/07/29 06:51:54;;;;;;;2.03;1.70;;;22.90;1.00;;;;;;8263252;28;20262;-84
2023/07/29 06:55:54;;;;;;;2.57;1.50;;;23.00;1.00;;;;;;8263627;28;20199;-83
2023/07/29 06:59:55;;;;;;;2.43;1.00;;;23.30;1.00;;;;;;8269161;28;20310;-83
2023/07/29 07:03:58;;;;;;;0.90;0.90;;;23.50;1.00;;;;;;8261402;28;20225;-84
2023/07/29 07:07:59;;;;;;;0.93;0.80;;;23.80;1.00;;;;;;8267936;28;20218;-84
2023/07/29 07:12:00;;;;;;;4.07;0.90;;;24.20;1.00;;;;;;8273902;28;20187;-83
2023/07/29 07:16:01;;;;;;;4.47;1.03;;;24.50;1.00;;;;;;8270759;28;20192;-83
2023/07/29 07:20:06;;;;;;;2.17;1.00;;;24.80;1.00;;;;;;8287667;28;20276;-82
2023/07/29 07:24:07;;;;;;;0.95;0.85;;;25.10;1.00;;;;;;8264534;28;20203;-83
2023/07/29 07:28:09;;;;;;;0.80;0.75;;;25.40;1.00;;;;;;8271323;28;20230;-84
2023/07/29 07:32:13;;;;;;;0.93;0.73;;;25.70;1.00;;;;;;8287938;28;20219;-84
2023/07/29 07:36:16;;;;;;;0.80;0.80;;;25.80;99.90;;;;;;8271215;28;20221;-83
2023/07/29 07:40:17;;;;;;;1.58;1.30;;;26.00;99.90;;;;;;8275541;28;20191;-83
2023/07/29 07:44:19;;;;;;;1.02;0.80;;;26.20;99.90;;;;;;8293096;28;20194;-83
2023/07/29 07:48:20;;;;;;;0.82;0.80;;;26.10;99.90;;;;;;8272435;28;20294;-83
2023/07/29 07:52:22;;;;;;;1.20;1.10;;;25.80;99.90;;;;;;8277285;28;20207;-83
2023/07/29 07:56:22;;;;;;;1.30;0.98;;;25.90;99.90;;;;;;8287399;28;20223;-83
2023/07/29 08:00:23;;;;;;;0.98;0.82;;;26.00;99.90;;;;;;8271450;28;20244;-84
2023/07/29 08:04:24;;;;;;;1.10;0.90;;;26.30;99.90;;;;;;8270137;28;20299;-83
2023/07/29 08:08:26;;;;;;;1.42;1.10;;;26.30;99.90;;;;;;8274239;28;20223;-84
2023/07/29 08:12:30;;;;;;;2.13;1.40;;;26.30;99.90;;;;;;8272408;28;20195;-84
2023/07/29 08:16:31;;;;;;;1.30;1.00;;;26.30;99.90;;;;;;8277031;28;20233;-84
2023/07/29 08:20:32;;;;;;;1.05;0.68;;;26.50;99.90;;;;;;8276749;28;20208;-84
2023/07/29 08:24:33;;;;;;;0.93;0.85;;;26.20;99.90;;;;;;8269446;28;20184;-85
2023/07/29 08:28:35;;;;;;;1.55;0.80;;;26.20;99.90;;;;;;8277439;28;20207;-84
2023/07/29 08:32:39;;;;;;;0.93;0.82;;;26.50;99.90;;;;;;8271148;28;20633;-84
2023/07/29 08:36:40;;;;;;;1.10;0.98;;;26.90;99.90;;;;;;8279620;28;20262;-85
2023/07/29 08:40:53;;;;;;;1.15;0.77;;;27.10;99.90;;;;;;8293713;28;20659;-84
2023/07/29 08:44:56;;;;;;;1.05;0.90;;;27.00;99.90;;;;;;8284695;28;20183;-85
2023/07/29 08:48:57;;;;;;;1.00;0.90;;;26.70;99.90;;;;;;8292488;28;20287;-85
2023/07/29 08:52:59;;;;;;;0.80;0.65;;;26.50;99.90;;;;;;8272303;28;20195;-85
2023/07/29 08:57:04;;;;;;;1.08;0.98;;;26.60;99.90;;;;;;8290309;28;20180;-88
2023/07/29 09:01:06;;;;;;;1.13;0.90;;;26.80;99.90;;;;;;8277284;28;20259;-85
2023/07/29 09:05:07;;;;;;;1.40;0.90;;;27.10;99.90;;;;;;8287208;28;20314;-86
2023/07/29 09:09:09;;;;;;;1.00;0.80;;;27.50;99.90;;;;;;8285120;28;20226;-85
2023/07/29 09:13:10;;;;;;;0.77;0.77;;;27.90;99.90;;;;;;8282257;28;20215;-86
2023/07/29 09:17:11;;;;;;;0.80;0.60;;;28.10;99.90;;;;;;8277647;28;20217;-86
2023/07/29 09:21:14;;;;;;;0.68;0.50;;;27.80;99.90;;;;;;8276797;28;20198;-84
2023/07/29 09:25:17;;;;;;;0.70;0.63;;;27.70;99.90;;;;;;8288398;28;20194;-86
2023/07/29 09:29:22;;;;;;;3.33;0.90;;;27.90;99.90;;;;;;8276059;28;20219;-85
2023/07/29 09:33:26;;;;;;;1.67;0.70;;;28.40;99.90;;;;;;8275378;28;20188;-85
2023/07/29 09:37:27;;;;;;;1.25;0.85;;;28.40;99.90;;;;;;8280343;28;20191;-84
2023/07/29 09:41:32;;;;;;;0.73;0.73;;;28.60;99.90;;;;;;8277631;28;20187;-84
2023/07/29 09:45:37;;;;;;;1.00;0.90;;;28.40;99.90;;;;;;8290155;28;20282;-84
2023/07/29 09:49:38;;;;;;;1.23;1.00;;;28.40;99.90;;;;;;8275836;28;20219;-84
2023/07/29 09:53:47;;;;;;;1.23;0.77;;;28.30;99.90;;;;;;8275942;28;20215;-83
2023/07/29 09:58:06;;;;;;;1.20;1.10;;;28.20;99.90;;;;;;8282762;28;20187;-87
2023/07/29 10:02:17;;;;;;;1.35;0.90;;;28.30;99.90;;;;;;8285707;28;20184;-87
2023/07/29 10:06:18;;;;;;;0.98;0.88;;;28.40;99.90;;;;;;8271521;28;20208;-86
2023/07/29 10:10:20;;;;;;;1.42;1.23;;;28.70;99.90;;;;;;8304904;28;20218;-86
2023/07/29 10:14:23;;;;;;;1.20;1.00;;;29.00;99.90;;;;;;8283989;28;20187;-85
2023/07/29 10:18:24;;;;;;;1.10;1.00;;;29.20;99.90;;;;;;8283261;28;20196;-87
2023/07/29 10:22:29;;;;;;;1.08;0.98;;;29.10;99.90;;;;;;8288767;28;20192;-87
2023/07/29 10:26:33;;;;;;;2.15;0.85;;;29.10;99.90;;;;;;8285152;28;20204;-87
2023/07/29 10:30:34;;;;;;;1.00;1.00;;;29.00;99.90;;;;;;8296074;28;20293;-88
2023/07/29 10:34:36;;;;;;;0.95;0.93;;;29.20;99.90;;;;;;8279897;28;20188;-86
2023/07/29 10:38:37;;;;;;;1.27;1.08;;;29.40;99.90;;;;;;8285520;28;20664;-86
2023/07/29 10:42:58;;;;;;;1.35;1.25;;;29.70;99.90;;;;;;8291526;28;20209;-87
2023/07/29 10:47:00;;;;;;;1.10;0.95;;;30.00;99.90;;;;;;8284067;28;20198;-87
2023/07/29 10:51:32;;;;;;;1.00;0.90;;;30.00;99.90;;;;;;8282187;28;20211;-86
2023/07/29 10:55:36;;;;;;;0.88;0.77;;;29.70;99.90;;;;;;8300332;28;20259;-87
2023/07/29 10:59:37;;;;;;;0.90;0.80;;;29.50;99.90;;;;;;8293597;28;20191;-88
2023/07/29 11:03:38;;;;;;;2.08;0.70;;;29.50;99.90;;;;;;8266092;28;20279;-85
2023/07/29 11:07:49;;;;;;;1.33;0.85;;;29.40;99.90;;;;;;8277778;28;20218;-87
2023/07/29 11:11:50;;;;;;;0.75;0.70;;;29.30;99.90;;;;;;8300572;28;20183;-85
2023/07/29 11:15:53;;;;;;;0.80;0.73;;;29.40;99.90;;;;;;8286095;28;20222;-86
2023/07/29 11:19:56;;;;;;;1.30;0.80;;;29.50;99.90;;;;;;8289569;28;20190;-88
2023/07/29 11:23:57;;;;;;;2.05;0.90;;;29.80;99.90;;;;;;8308396;28;20176;-86
2023/07/29 11:28:01;;;;;;;1.13;0.73;;;30.00;99.90;;;;;;8313401;28;20226;-87
2023/07/29 11:32:03;;;;;;;1.23;0.63;;;30.00;99.90;;;;;;8302316;28;20180;-88
2023/07/29 11:36:17;;;;;;;0.82;0.82;;;29.60;99.90;;;;;;8304319;28;20183;-86
2023/07/29 11:40:20;;;;;;;2.20;1.00;;;29.60;99.90;;;;;;8306223;28;20188;-86
2023/07/29 11:44:23;;;;;;;1.70;0.90;;;29.90;99.90;;;;;;8303766;28;20433;-86
2023/07/29 11:48:32;;;;;;;1.10;0.80;;;30.40;99.90;;;;;;8322086;28;20203;-87
2023/07/29 11:52:34;;;;;;;1.13;1.00;;;30.80;99.90;;;;;;8312224;28;20168;-85
2023/07/29 11:56:38;;;;;;;2.28;1.60;;;30.90;99.90;;;;;;8315840;28;20256;-86
2023/07/29 12:00:40;;;;;;;2.38;1.15;;;30.90;99.90;;;;;;8314721;28;20231;-87
2023/07/29 12:04:46;;;;;;;2.22;1.30;;;30.80;99.90;;;;;;8319560;28;20251;-88
2023/07/29 12:08:47;;;;;;;1.00;0.88;;;30.50;99.90;;;;;;8314062;28;20250;-87
2023/07/29 12:12:50;;;;;;;3.10;0.90;;;30.30;99.90;;;;;;8313645;28;20179;-86
2023/07/29 12:16:51;;;;;;;0.73;0.68;;;30.30;99.90;;;;;;8284146;22;20800;-68
2023/07/29 12:20:54;;;;;;;0.82;0.80;;;30.40;99.90;;;;;;8238408;28;20605;-66
2023/07/29 12:24:55;;;;;;;1.42;1.00;;;30.10;99.90;;;;;;8246330;28;20503;-67
2023/07/29 12:28:58;;;;;;;1.00;0.90;;;29.80;99.90;;;;;;8244954;28;20238;-67
2023/07/29 12:32:59;;;;;;;1.05;0.95;;;29.70;99.90;;;;;;8242131;28;20195;-68
2023/07/29 12:37:03;;;;;;;1.33;0.73;;;29.60;99.90;;;;;;8246899;28;20489;-69
2023/07/29 12:41:03;;;;;;;3.10;0.88;;;29.50;99.90;;;;;;8240424;28;20201;-69
2023/07/29 12:45:05;;;;;;;2.20;0.73;;;29.70;99.90;;;;;;8238536;28;20211;-67
2023/07/29 12:49:05;;;;;;;1.25;0.77;;;30.00;99.90;;;;;;8237476;28;20428;-68
2023/07/29 12:53:08;;;;;;;0.93;0.90;;;30.10;99.90;;;;;;8243428;28;20206;-67
2023/07/29 12:57:08;;;;;;;1.35;0.95;;;30.10;99.90;;;;;;8237872;28;20196;-68
2023/07/29 13:01:11;;;;;;;2.17;0.90;;;29.70;99.90;;;;;;8234877;28;20196;-66
2023/07/29 13:05:12;;;;;;;3.15;1.00;;;29.40;99.90;;;;;;8237843;28;20191;-66
2023/07/29 13:09:13;;;;;;;2.13;1.20;;;29.40;99.90;;;;;;8240169;28;20226;-68
2023/07/29 13:13:14;;;;;;;1.20;1.10;;;29.60;99.90;;;;;;8244095;28;20274;-69
2023/07/29 13:17:14;;;;;;;3.30;1.08;;;29.40;99.90;;;;;;8235336;28;20194;-68
2023/07/29 13:21:15;;;;;;;1.23;0.93;;;29.30;99.90;;;;;;8235327;28;20282;-63
2023/07/29 13:25:16;;;;;;;2.42;1.00;;;29.00;99.90;;;;;;8242974;28;20490;-64
2023/07/29 13:29:16;;;;;;;1.27;1.08;;;28.70;99.90;;;;;;8254212;28;20322;-63
2023/07/29 13:33:17;;;;;;;1.73;0.88;;;28.40;99.90;;;;;;8236586;28;20180;-64
2023/07/29 13:37:18;;;;;;;1.77;0.60;;;28.20;99.90;;;;;;8242798;28;20258;-61
2023/07/29 13:41:18;;;;;;;0.80;0.70;;;28.30;99.90;;;;;;8244054;28;20183;-61
2023/07/29 13:45:19;;;;;;;0.98;0.75;;;28.40;99.90;;;;;;8239622;28;20257;-64
2023/07/29 13:49:20;;;;;;;1.00;0.80;;;28.40;99.90;;;;;;8234132;28;20211;-64
2023/07/29 13:53:21;;;;;;;0.80;0.70;;;28.10;99.90;;;;;;8232047;28;20183;-63
2023/07/29 13:57:22;;;;;;;0.80;0.73;;;27.90;99.90;;;;;;8229859;28;20194;-64
2023/07/29 14:01:22;;;;;;;2.08;0.80;;;27.70;99.90;;;;;;8238968;28;20214;-68
2023/07/29 14:05:23;;;;;;;1.05;0.80;;;27.50;99.90;;;;;;8235467;28;20191;-64
2023/07/29 14:09:25;;;;;;;1.00;0.90;;;27.40;99.90;;;;;;8248776;28;20234;-65
2023/07/29 14:13:26;;;;;;;0.80;0.65;;;27.20;99.90;;;;;;8239779;28;20195;-63
2023/07/29 14:17:27;;;;;;;4.78;0.82;;;27.20;99.90;;;;;;8246459;28;20192;-65
2023/07/29 14:21:28;;;;;;;2.78;0.88;;;27.00;99.90;;;;;;8242635;28;20195;-62
2023/07/29 14:25:29;;;;;;;2.35;0.90;;;26.30;99.90;;;;;;8242988;28;20268;-63
2023/07/29 14:29:30;;;;;;;1.13;0.70;;;25.70;99.90;;;;;;8240605;28;20219;-66
2023/07/29 14:33:31;;;;;;;1.37;0.70;;;25.40;99.90;;;;;;8244953;28;20198;-65
2023/07/29 14:37:32;;;;;;;0.80;0.50;;;25.20;99.90;;;;;;8241662;28;20192;-66
2023/07/29 14:41:32;;;;;;;1.23;0.80;;;25.30;99.90;;;;;;8242447;28;20201;-67
2023/07/29 14:45:33;;;;;;;1.03;0.63;;;25.40;99.90;;;;;;8240969;28;20192;-68
2023/07/29 14:49:34;;;;;;;2.87;1.03;;;25.40;99.90;;;;;;8243612;28;20209;-68
2023/07/29 14:53:34;;;;;;;0.93;0.60;;;25.40;99.90;;;;;;8245588;28;20178;-68
2023/07/29 14:57:35;;;;;;;3.22;0.60;;;25.60;99.90;;;;;;8239492;28;20192;-67
2023/07/29 15:01:36;;;;;;;1.80;0.50;;;25.90;99.90;;;;;;8243058;28;20194;-66
2023/07/29 15:05:37;;;;;;;0.82;0.40;;;26.10;99.90;;;;;;8240440;28;20210;-67
2023/07/29 15:09:37;;;;;;;1.42;0.70;;;26.40;99.90;;;;;;8240118;28;20211;-67
2023/07/29 15:13:38;;;;;;;1.35;0.40;;;26.90;99.90;;;;;;8237038;28;20184;-67
2023/07/29 15:17:39;;;;;;;1.15;0.35;;;27.40;99.90;;;;;;8240696;28;20200;-68
2023/07/29 15:21:40;;;;;;;2.05;0.50;;;27.90;99.90;;;;;;8238788;28;20189;-65
2023/07/29 15:25:40;;;;;;;1.05;0.60;;;28.00;99.90;;;;;;8236326;28;20213;-69
2023/07/29 15:29:41;;;;;;;1.17;0.50;;;27.90;99.90;;;;;;8244677;28;20723;-68
2023/07/29 15:33:42;;;;;;;0.98;0.50;;;27.80;99.90;;;;;;8248258;28;20187;-67
2023/07/29 15:37:46;;;;;;;0.90;0.50;;;27.40;99.90;;;;;;8238247;28;20234;-64
2023/07/29 15:41:46;;;;;;;0.82;0.40;;;27.30;99.90;;;;;;8238524;28;20180;-66
2023/07/29 15:45:47;;;;;;;2.05;0.40;;;27.20;99.90;;;;;;8243040;28;20215;-66
2023/07/29 15:49:48;;;;;;;0.70;0.50;;;27.10;99.90;;;;;;8245156;28;20707;-66
2023/07/29 15:53:49;;;;;;;0.63;0.50;;;27.10;99.90;;;;;;8242825;28;20215;-66
2023/07/29 15:57:50;;;;;;;1.23;0.60;;;27.00;99.90;;;;;;8243172;28;20179;-65
2023/07/29 16:01:51;;;;;;;0.75;0.52;;;26.90;99.90;;;;;;8243511;28;20187;-63
2023/07/29 16:05:52;;;;;;;1.30;0.60;;;26.80;99.90;;;;;;8237399;28;20615;-66
2023/07/29 16:09:53;;;;;;;0.70;0.38;;;26.70;99.90;;;;;;8247862;28;20211;-66
2023/07/29 16:13:53;;;;;;;3.15;0.52;;;26.80;99.90;;;;;;8233548;28;20180;-64
2023/07/29 16:17:54;;;;;;;1.20;0.60;;;26.70;99.90;;;;;;8240798;28;20203;-65
2023/07/29 16:21:55;;;;;;;2.13;0.60;;;26.50;99.90;;;;;;8231105;28;20183;-66
2023/07/29 16:25:56;;;;;;;0.73;0.50;;;26.40;99.90;;;;;;8231896;28;20241;-62
2023/07/29 16:29:57;;;;;;;1.23;0.70;;;26.30;99.90;;;;;;8241268;28;20515;-64
2023/07/29 16:33:58;;;;;;;1.25;0.90;;;26.30;99.90;;;;;;8249008;28;20182;-63
2023/07/29 16:38:00;;;;;;;2.30;0.55;;;26.40;99.90;;;;;;8244730;28;20390;-63
2023/07/29 16:42:01;;;;;;;1.90;0.75;;;26.40;99.90;;;;;;8238586;28;20255;-62
2023/07/29 16:46:02;;;;;;;2.70;0.95;;;26.10;99.90;;;;;;8238339;28;20215;-65
2023/07/29 16:50:03;;;;;;;2.22;1.00;;;25.80;99.90;;;;;;8234273;28;20216;-68
2023/07/29 16:54:03;;;;;;;1.67;0.50;;;25.70;99.90;;;;;;8238887;28;20188;-67
2023/07/29 16:58:04;;;;;;;1.10;0.80;;;25.60;99.90;;;;;;8239284;28;20199;-66
2023/07/29 17:02:06;;;;;;;1.27;0.70;;;25.60;99.90;;;;;;8240137;28;20258;-68
2023/07/29 17:06:07;;;;;;;1.17;0.60;;;25.70;99.90;;;;;;8237670;28;20630;-67
2023/07/29 17:10:08;;;;;;;1.65;0.52;;;25.80;99.90;;;;;;8251983;28;20270;-67
2023/07/29 17:14:08;;;;;;;0.88;0.60;;;25.70;99.90;;;;;;8241774;28;20187;-69
2023/07/29 17:18:09;;;;;;;0.80;0.50;;;25.50;99.90;;;;;;8245226;28;20323;-71
2023/07/29 17:22:13;;;;;;;0.70;0.50;;;25.20;99.90;;;;;;8243482;28;20877;-69
2023/07/29 17:26:14;;;;;;;0.80;0.57;;;24.90;99.90;;;;;;8248347;28;20200;-68
2023/07/29 17:30:14;;;;;;;1.07;0.93;;;24.60;99.90;;;;;;8248451;28;20216;-69
2023/07/29 17:34:15;;;;;;;3.23;2.00;;;24.20;99.90;;;;;;8240609;28;20183;-66
2023/07/29 17:38:16;;;;;;;3.50;0.80;;;23.20;99.90;;;;;;8243984;28;20188;-69
2023/07/29 17:42:16;;;;;;;1.17;0.70;;;22.60;99.90;;;;;;8243393;28;20200;-68
2023/07/29 17:46:17;;;;;;;1.00;0.70;;;22.20;99.90;;;;;;8237610;28;20206;-70
2023/07/29 17:50:21;;;;;;;1.37;0.80;;;21.70;99.90;;;;;;8245570;28;20212;-69
2023/07/29 17:54:22;;;;;;;1.27;1.10;;;21.30;1.00;;;;;;8239150;28;20181;-68
2023/07/29 17:58:23;;;;;;;1.93;0.70;;;21.10;1.00;;;;;;8237351;28;20195;-65
2023/07/29 18:02:24;;;;;;;0.90;0.77;;;20.90;1.00;;;;;;8245269;28;20190;-64
2023/07/29 18:06:24;;;;;;;1.03;0.60;;;20.80;1.00;;;;;;8241565;28;20218;-67
2023/07/29 18:10:25;;;;;;;0.90;0.63;;;20.70;1.00;;;;;;8239784;28;20214;-65
2023/07/29 18:14:26;;;;;;;1.97;0.90;;;20.60;1.00;;;;;;8234697;28;20191;-67
2023/07/29 18:18:28;;;;;;;2.03;1.20;;;20.60;1.00;;;;;;8245083;28;20225;-66
2023/07/29 18:22:29;;;;;;;6.10;5.03;;;20.60;1.00;;;;;;8244420;28;20297;-64
2023/07/29 18:26:30;;;;;;;3.00;1.70;;;20.60;1.00;;;;;;8237467;28;20196;-64
2023/07/29 18:30:31;;;;;;;1.60;1.30;;;20.60;1.00;;;;;;8234266;28;20223;-66
2023/07/29 18:34:31;;;;;;;5.40;1.53;;;20.50;1.00;;;;;;8231769;28;20195;-68
2023/07/29 18:38:33;;;;;;;2.50;1.20;;;20.40;1.00;;;;;;8239612;28;20196;-65
2023/07/29 18:42:34;;;;;;;2.30;1.20;;;20.10;1.00;;;;;;8236519;28;20195;-63
2023/07/29 18:46:34;;;;;;;1.20;0.60;;;19.90;1.00;;;;;;8238104;28;20519;-62
2023/07/29 18:50:35;;;;;;;1.70;0.70;;;19.50;1.00;;;;;;8241527;28;20290;-65
2023/07/29 18:54:38;;;;;;;2.60;0.70;;;19.10;1.00;;;;;;8237764;28;20258;-65
2023/07/29 18:58:38;;;;;;;4.57;1.10;;;18.80;46.40;;;;;;8243382;28;20183;-69
2023/07/29 19:02:41;;;;;;;4.07;0.93;;;18.60;99.90;;;;;;8248690;28;20274;-66
2023/07/29 19:06:42;;;;;;;3.97;0.93;;;18.50;99.90;;;;;;8248967;28;20225;-64
2023/07/29 19:10:43;;;;;;;3.03;1.37;;;18.30;1.00;;;;;;8244666;28;20223;-65
2023/07/29 19:14:43;;;;;;;1.93;0.80;;;18.20;1.00;;;;;;8253095;28;20325;-66
2023/07/29 19:18:44;;;;;;;1.87;0.90;;;18.20;1.00;;;;;;8244676;28;20218;-63
2023/07/29 19:22:45;;;;;;;1.20;0.83;;;18.20;1.00;;;;;;8242806;28;21481;-61
2023/07/29 19:26:46;;;;;;;4.67;1.30;;;18.20;1.00;;;;;;8239960;28;20211;-61
2023/07/29 19:30:47;;;;;;;1.73;1.10;;;18.20;15.90;;;;;;8241859;28;20247;-68
2023/07/29 19:34:54;;;;;;;1.00;0.67;;;18.30;99.90;;;;;;8245052;28;20191;-70
2023/07/29 19:38:54;;;;;;;1.47;1.00;;;18.30;93.50;;;;;;8246104;28;20540;-70
2023/07/29 19:42:55;;;;;;;1.07;0.87;;;18.30;99.90;;;;;;8238966;28;20196;-69
2023/07/29 19:46:56;;;;;;;1.70;1.10;;;18.30;99.90;;;;;;8242729;28;20459;-69
2023/07/29 19:50:57;;;;;;;1.00;0.87;;;18.20;99.90;;;;;;8242555;28;20219;-66
2023/07/29 19:54:58;;;;;;;1.67;1.23;;;18.20;99.90;;;;;;8243137;28;20275;-68
2023/07/29 19:58:59;;;;;;;1.57;1.17;;;18.20;99.90;;;;;;8243148;28;20196;-67
2023/07/29 20:03:00;;;;;;;1.63;1.10;;;18.10;99.90;;;;;;8242626;28;20199;-68
2023/07/29 20:07:01;;;;;;;2.10;1.40;;;18.00;99.90;;;;;;8240053;28;20195;-69
2023/07/29 20:11:01;;;;;;;2.30;1.27;;;18.00;99.90;;;;;;8238122;28;20218;-67
2023/07/29 20:15:03;;;;;;;1.73;1.20;;;18.00;99.90;;;;;;8238413;28;20196;-68
2023/07/29 20:19:03;;;;;;;1.83;1.13;;;17.90;99.90;;;;;;8241517;28;20183;-70
2023/07/29 20:23:06;;;;;;;1.83;1.47;;;17.90;99.90;;;;;;8229620;28;22106;-66
2023/07/29 20:27:07;;;;;;;2.70;1.20;;;17.80;99.90;;;;;;8242216;28;20180;-69
2023/07/29 20:31:08;;;;;;;1.90;1.33;;;17.70;99.90;;;;;;8246307;28;20241;-67
2023/07/29 20:35:09;;;;;;;1.80;1.30;;;17.60;99.90;;;;;;8239584;28;20215;-68
2023/07/29 20:39:10;;;;;;;2.40;1.50;;;17.60;43.90;;;;;;8245214;28;20191;-66
2023/07/29 20:43:11;;;;;;;3.17;1.50;;;17.50;1.00;;;;;;8242889;28;20282;-70
2023/07/29 20:47:12;;;;;;;2.50;1.63;;;17.40;1.00;;;;;;8258942;28;20191;-69
2023/07/29 20:51:16;;;;;;;1.90;1.13;;;17.40;1.00;;;;;;8242036;28;20242;-67
2023/07/29 20:55:17;;;;;;;3.17;1.40;;;17.30;1.00;;;;;;8243609;28;20176;-68
2023/07/29 20:59:18;;;;;;;3.47;1.20;;;17.30;1.00;;;;;;8239833;28;20203;-68
2023/07/29 21:03:19;;;;;;;1.73;1.23;;;17.30;1.00;;;;;;8237968;28;20187;-69
2023/07/29 21:07:19;;;;;;;1.80;1.50;;;17.20;1.00;;;;;;8240247;28;20234;-65